NCAR-RAP Real-Time Weather Data

Output produced by METARs form (05 December 2019  15:09 UTC)
found at http://weather.rap.ucar.edu/surface/
 
RJBB 051500Z AUTO 31023KT 9999 FEW039 SCT200 BKN210 09/01 Q1027 NOSIG
 
RJBD 051000Z 35010KT 9999 FEW030 SCT050 BKN/// 10/02 Q1026
 
RJBE 051200Z 29009KT 9999 FEW030 BKN/// 08/M01 Q1027
 
 
RJOA 051300Z 28005KT 9999 FEW025 BKN/// 04/M04 Q1028
 
RJOB 051200Z VRB02KT 9999 FEW020 BKN/// 04/00 Q1027
 
RJOC 051100Z 27010KT 9999 FEW030 SCT060 BKN/// 07/M03 Q1028
 
RJOH 051500Z 32010KT 9999 -SHRA FEW025 BKN035 BKN050 06/02 Q1028
 
RJOI 051455Z 29005KT 9999 FEW025 SCT100 OVC200 07/M01 A3044 RMK SLP307 T00671011 401170039 53007
 
RJOK 051100Z 02005KT 9999 FEW025 BKN/// 10/00 Q1027
 
RJOM 051200Z 31009KT 9999 FEW030 BKN/// 09/M01 Q1029
 
RJOO 051100Z VRB01KT 9999 FEW025 BKN/// 08/02 Q1027 RMK 1CU025 A3033
 
RJOR 051200Z 22008KT 180V240 9999 -SHRA FEW020 SCT030 BKN040 05/03 Q1027
 
RJOT 051200Z 27008KT 9999 FEW030 SCT060 BKN/// 07/M01 Q1028
 
RJOW 051000Z 31019KT 9999 SCT045 BKN/// 08/M04 Q1029
 
RJOY 051000Z 36005KT 340V040 9999 FEW025 SCT045 BKN/// 09/02 Q1026
 
RJDC 051200Z VRB01KT 9999 FEW020 BKN060 07/M02 Q1030
 
RJDT 051100Z 32009KT 280V350 CAVOK 08/M05 Q1031
 
RJFE 051000Z 35011KT 9999 FEW045 SCT180 BKN/// 10/01 Q1031
 
RJFF 051500Z AUTO 15003KT 9999 FEW044 BKN048 BKN060 08/00 Q1030 NOSIG RMK A3042
 
 
RJFK 051200Z 34008KT 9999 FEW030 BKN130 07/00 Q1030 RMK 1CU030 7AC130 A3042
 
RJFO 051300Z 27004KT 9999 FEW030 BKN050 BKN/// 07/00 Q1029
 
RJFR 051500Z 35007KT 9999 FEW030 BKN060 BKN/// 09/M01 Q1029
 
RJFS 051400Z 34002KT 9999 FEW040 SCT050 BKN/// 07/04 Q1030
 
RJFT 051200Z VRB01KT CAVOK 05/02 Q1031
 
RJFU 051200Z 05004KT 350V090 9999 FEW040 BKN/// 10/M01 Q1031
 
RJFM 051200Z 25007KT 9999 FEW030 BKN120 BKN150 10/01 Q1029